Williston, North Dakota
Current Conditions -  °F | °C
As of 12:52 AM on Wednesday 22 Oct 2014 (Local Time) from KISN Reporting Station
Broken Clouds Broken Clouds  
Wind Chill: 54°   Ceiling: 12000
Heat Index: 54°   Visibility: 10mi
Dew Point: 43°   Wind: 0mph
Humidity: 66%   Direction: NA
Pressure: 29.63"   Gusts: NA
Location:  48.15°N, 103.62°W
Report Text: KISN 220552Z AUTO 00000KT 10SM BKN120 12/06 A2963 RMK AO2 SLP033 T01220061 10211 20056 402390022 53016
Loading
Personal Weather Stations






























Interactive Weather Map
Tropical Storm Tracking
New forecast layout! Learn more

10-Day Weather Forecast

Advertisements
Track Severe Weather on mobile